Kezdőlap
METAR-TAF:

METAR-TAF

Repülőterek :

Saskatoon, Saskatchewan, Kanada

földrajzi szélesség: 52-10N, földrajzi hosszúság: 106-41W, magasság: 501 m

Jelenlegi meteorológiai megfigyelések

A jelentés 58 perccel ezelõtt készült, 18:00 UTC
Délnyugati szél 13 kt
Hőmérséklet 12°C
Páratartalom 47%
Légköri nyomás 1018 hPa
Látótávolság: 24.1 km
Kevés felhő 30000 lábon

METAR: CYXE 171800Z 23013KT 15SM FEW300 12/01 A3007 RMK CI2 SLP204

Idő: 12:58 (18:58 UTC)

Előrejelzés

A jelentés 1 órával és 20 perccel ezelõtt készült, 17:38 UTC
Az előrejelzés 17-én 18 óra UTC és 18-én 18 óra UTC között érvényes
Délnyugati szél 15 kt
Látótávolság: 10 km
Kevés felhő 30000 lábon
18-én 00 óra UTC és 18-én 02 óra UTC között fokozatosan kialakuló
Nyugat-délnyugati szél 10 kt

TAF: CYXE 171738Z 1718/1818 22015KT P6SM FEW300 BECMG 1800/1802 24010KT RMK NXT FCST BY 180000Z

Meteorológiai megfigyelések és előrejelzések több, mint 4000 repülőtéren (METAR és TAF jelentéseket).

A térképen piros és sárga pontok jelzik az elérhető meteorológiai állomásokat.

Mozgassa az egeret a pont fölött, hogy megjelenjen az állomás neve.

Azután kattintson az időjárási megfigyelések és előrejelzések megtekintéséhez.

A térkép megváltoztatása: kattintson a fekete keresztel jelölt zöld gombra ráközelítéshez, a vonallal jelölt zöld gombra távolításhoz, vagy a zöld nyilakra a szomszédos térképek eléréséhez.


METAR-TAF: